Hornell, New York
Current Conditions -  °F | °C
As of 7:54 PM on Saturday 25 Oct 2014 (Local Time) from KDSV Reporting Station
Clear Clear  
Wind Chill: 58°   Ceiling: Unl
Heat Index: 58°   Visibility: 10mi
Dew Point: 47°   Wind: 5mph
Humidity: 67%   Direction: 310°NW
Pressure: 29.65"   Gusts: NA
Location:  42.33°N, 77.66°W
Report Text: KDSV 252354Z AUTO 31004KT 10SM CLR 14/08 A2965 RMK AO2 SLP050 60000 T01440083 10211 20139 51010
Loading
Personal Weather Stations






























Interactive Weather Map
Tropical Storm Tracking
New forecast layout! Learn more

10-Day Weather Forecast

Advertisements
Track Severe Weather on mobile